Loudville, Massachusetts
Current Conditions -  °F | °C
As of 6:53 AM on Friday 19 Dec 2014 (Local Time) from KBAF Reporting Station
Broken Clouds Broken Clouds  
Wind Chill: 25°   Ceiling: 4500
Heat Index: 33°   Visibility: 10mi
Dew Point: 20°   Wind: 10mph
Humidity: 59%   Direction: 280°W
Pressure: 29.94"   Gusts: NA
Location:  42.2952°N, 72.7431°W
Report Text: KBAF 191153Z 28009KT 10SM BKN045 01/M07 A2994 RMK AO2 SLP144 T00061067 10017 20000 53007
Loading
Personal Weather Stations






























Interactive Weather Map New forecast layout! Learn more

10-Day Weather Forecast

Advertisements
Track Severe Weather on mobile